Time;durP1;ratioP1;P1;durP2;ratioP2;P2;SDS_P1;SDS_P2;PMS_P1;PMS_P2;Temp;Humidity;BMP_temperature;BMP_pressure;BME280_temperature;BME280_humidity;BME280_pressure;Samples;Min_cycle;Max_cycle;Signal;HPM_P1;HPM_P2
2023/11/26 00:01:30;;;;;;;;;;;;;;;;;;4966124;28;89173;-61
2023/11/26 00:03:55;;;;;;;;;;;;;;;;;;4966420;28;89581;-61
2023/11/26 00:06:20;;;;;;;;;;;;;;;;;;4969629;28;90385;-60
2023/11/26 00:08:45;;;;;;;;;;;;;;;;;;4967186;28;89589;-61
2023/11/26 00:11:10;;;;;;;;;;;;;;;;;;4967154;28;89574;-61
2023/11/26 00:13:36;;;;;;;;;;;;;;;;;;4967237;28;90169;-61
2023/11/26 00:16:04;;;;;;;;;;;;;;;;;;4966962;28;89692;-61
2023/11/26 00:18:29;;;;;;;;;;;;;;;;;;4965889;28;90607;-61
2023/11/26 00:20:54;;;;;;;;;;;;;;;;;;4980269;28;89563;-61
2023/11/26 00:23:19;;;;;;;;;;;;;;;;;;4986457;28;89367;-61
2023/11/26 00:25:45;;;;;;;;;;;;;;;;;;4986529;28;89390;-61
2023/11/26 00:28:10;;;;;;;;;;;;;;;;;;4989278;28;89744;-61
2023/11/26 00:30:35;;;;;;;;;;;;;;;;;;4974287;28;89519;-62
2023/11/26 00:33:00;;;;;;;;;;;;;;;;;;4966145;28;89144;-61
2023/11/26 00:35:25;;;;;;;;;;;;;;;;;;4966616;28;89610;-60
2023/11/26 00:37:51;;;;;;;;;;;;;;;;;;4966335;28;89666;-60
2023/11/26 00:40:17;;;;;;;;;;;;;;;;;;4966294;28;89233;-60
2023/11/26 00:42:43;;;;;;;;;;;;;;;;;;4966002;28;89148;-60
2023/11/26 00:45:08;;;;;;;;;;;;;;;;;;4966079;28;89517;-61
2023/11/26 00:47:33;;;;;;;;;;;;;;;;;;4969214;28;90819;-61
2023/11/26 00:50:01;;;;;;;;;;;;;;;;;;4966569;28;89736;-61
2023/11/26 00:52:26;;;;;;;;;;;;;;;;;;4966250;28;89551;-60
2023/11/26 00:54:52;;;;;;;;;;;;;;;;;;4965882;28;89573;-61
2023/11/26 00:57:17;;;;;;;;;;;;;;;;;;4965781;28;90480;-61
2023/11/26 00:59:42;;;;;;;;;;;;;;;;;;4964315;28;90241;-61
2023/11/26 01:02:09;;;;;;;;;;;;;;;;;;4966406;28;89035;-61
2023/11/26 01:04:34;;;;;;;;;;;;;;;;;;4966315;28;91020;-61
2023/11/26 01:07:00;;;;;;;;;;;;;;;;;;4965545;28;89495;-60
2023/11/26 01:09:25;;;;;;;;;;;;;;;;;;4969194;28;89399;-60
2023/11/26 01:11:50;;;;;;;;;;;;;;;;;;4966276;28;89077;-60
2023/11/26 01:14:15;;;;;;;;;;;;;;;;;;4965448;28;89115;-60
2023/11/26 01:16:40;;;;;;;;;;;;;;;;;;4966085;28;89506;-60
2023/11/26 01:19:06;;;;;;;;;;;;;;;;;;4966476;28;89053;-61
2023/11/26 01:21:31;;;;;;;;;;;;;;;;;;4966224;28;89587;-59
2023/11/26 01:23:56;;;;;;;;;;;;;;;;;;4965689;28;90728;-60
2023/11/26 01:26:21;;;;;;;;;;;;;;;;;;4967390;28;90366;-61
2023/11/26 01:28:47;;;;;;;;;;;;;;;;;;4969502;28;89072;-61
2023/11/26 01:31:12;;;;;;;;;;;;;;;;;;4971394;28;89629;-61
2023/11/26 01:33:37;;;;;;;;;;;;;;;;;;4968240;28;89075;-61
2023/11/26 01:36:06;;;;;;;;;;;;;;;;;;4969345;28;89618;-61
2023/11/26 01:38:31;;;;;;;;;;;;;;;;;;4967851;28;90861;-60
2023/11/26 01:40:56;;;;;;;;;;;;;;;;;;4962020;28;89685;-61
2023/11/26 01:43:22;;;;;;;;;;;;;;;;;;4954904;28;89682;-60
2023/11/26 01:45:47;;;;;;;;;;;;;;;;;;4969120;28;89456;-60
2023/11/26 01:48:13;;;;;;;;;;;;;;;;;;4969879;28;89044;-60
2023/11/26 01:50:38;;;;;;;;;;;;;;;;;;4969813;28;89578;-60
2023/11/26 01:53:04;;;;;;;;;;;;;;;;;;4971543;28;89074;-60
2023/11/26 01:55:29;;;;;;;;;;;;;;;;;;4968767;28;89610;-61
2023/11/26 01:57:54;;;;;;;;;;;;;;;;;;4968985;28;89480;-60
2023/11/26 02:00:20;;;;;;;;;;;;;;;;;;4968506;28;89095;-60
2023/11/26 02:02:45;;;;;;;;;;;;;;;;;;4968522;28;91042;-60
2023/11/26 02:05:11;;;;;;;;;;;;;;;;;;4968780;28;89656;-60
2023/11/26 02:07:38;;;;;;;;;;;;;;;;;;4951095;28;89564;-60
2023/11/26 02:10:03;;;;;;;;;;;;;;;;;;4949114;28;89674;-60
2023/11/26 02:12:28;;;;;;;;;;;;;;;;;;4948938;28;89142;-61
2023/11/26 02:14:53;;;;;;;;;;;;;;;;;;4951667;28;89122;-61
2023/11/26 02:17:20;;;;;;;;;;;;;;;;;;4955615;28;89173;-61
2023/11/26 02:19:45;;;;;;;;;;;;;;;;;;4986990;28;90484;-61
2023/11/26 02:22:11;;;;;;;;;;;;;;;;;;4988180;28;89506;-61
2023/11/26 02:24:43;;;;;;;;;;;;;;;;;;4988289;28;89145;-61
2023/11/26 02:27:09;;;;;;;;;;;;;;;;;;4988490;28;88932;-61
2023/11/26 02:29:34;;;;;;;;;;;;;;;;;;4988027;28;89561;-61
2023/11/26 02:31:59;;;;;;;;;;;;;;;;;;4977258;28;90333;-61
2023/11/26 02:34:24;;;;;;;;;;;;;;;;;;4968091;28;89485;-62
2023/11/26 02:36:49;;;;;;;;;;;;;;;;;;4964215;28;89752;-61
2023/11/26 02:39:15;;;;;;;;;;;;;;;;;;4967530;28;89352;-62
2023/11/26 02:41:41;;;;;;;;;;;;;;;;;;4969053;28;89610;-61
2023/11/26 02:44:06;;;;;;;;;;;;;;;;;;4983670;28;90913;-61
2023/11/26 02:46:31;;;;;;;;;;;;;;;;;;4968290;28;89289;-61
2023/11/26 02:48:56;;;;;;;;;;;;;;;;;;4968339;28;89462;-60
2023/11/26 02:51:22;;;;;;;;;;;;;;;;;;4968036;28;89413;-61
2023/11/26 02:53:47;;;;;;;;;;;;;;;;;;4967464;28;89400;-60
2023/11/26 02:56:13;;;;;;;;;;;;;;;;;;4970141;28;90877;-60
2023/11/26 02:58:41;;;;;;;;;;;;;;;;;;4968438;28;89228;-61
2023/11/26 03:01:06;;;;;;;;;;;;;;;;;;4968738;28;90930;-60
2023/11/26 03:03:31;;;;;;;;;;;;;;;;;;4967874;28;89641;-61
2023/11/26 03:05:57;;;;;;;;;;;;;;;;;;4967923;28;88923;-61
2023/11/26 03:08:28;;;;;;;;;;;;;;;;;;4967414;28;89333;-61
2023/11/26 03:13:37;;;;;;;;;;;;;;;;;;4968500;28;89082;-60
2023/11/26 03:16:03;;;;;;;;;;;;;;;;;;4967735;28;90212;-61
2023/11/26 03:18:28;;;;;;;;;;;;;;;;;;4969862;28;89869;-61
2023/11/26 03:20:55;;;;;;;;;;;;;;;;;;4967728;28;90643;-61
2023/11/26 03:23:24;;;;;;;;;;;;;;;;;;4967783;28;90243;-60
2023/11/26 03:25:49;;;;;;;;;;;;;;;;;;4967914;28;89468;-60
2023/11/26 03:28:15;;;;;;;;;;;;;;;;;;4967230;28;89596;-61
2023/11/26 03:30:40;;;;;;;;;;;;;;;;;;4966654;28;92030;-61
2023/11/26 03:33:07;;;;;;;;;;;;;;;;;;4967318;28;89529;-61
2023/11/26 03:35:32;;;;;;;;;;;;;;;;;;4966477;28;89705;-61
2023/11/26 03:37:58;;;;;;;;;;;;;;;;;;4966446;28;89651;-61
2023/11/26 03:40:23;;;;;;;;;;;;;;;;;;4969587;28;89417;-61
2023/11/26 03:42:49;;;;;;;;;;;;;;;;;;4966688;28;89407;-61
2023/11/26 03:45:14;;;;;;;;;;;;;;;;;;4967247;28;89049;-60
2023/11/26 03:47:39;;;;;;;;;;;;;;;;;;4967997;28;89602;-61
2023/11/26 03:50:12;;;;;;;;;;;;;;;;;;4966101;28;91737;-61
2023/11/26 03:52:38;;;;;;;;;;;;;;;;;;4967537;28;89399;-61
2023/11/26 03:55:04;;;;;;;;;;;;;;;;;;4967100;28;89834;-61
2023/11/26 03:57:29;;;;;;;;;;;;;;;;;;4965420;28;89536;-61
2023/11/26 03:59:55;;;;;;;;;;;;;;;;;;4966870;28;89125;-61
2023/11/26 04:02:20;;;;;;;;;;;;;;;;;;4969880;28;89566;-61
2023/11/26 04:04:45;;;;;;;;;;;;;;;;;;4967102;28;89011;-61
2023/11/26 04:07:11;;;;;;;;;;;;;;;;;;4967841;28;89649;-60
2023/11/26 04:09:37;;;;;;;;;;;;;;;;;;4966642;28;90416;-60
2023/11/26 04:12:02;;;;;;;;;;;;;;;;;;4967033;28;89950;-61
2023/11/26 04:14:29;;;;;;;;;;;;;;;;;;4967303;28;90576;-61
2023/11/26 04:16:54;;;;;;;;;;;;;;;;;;4966953;28;89169;-61
2023/11/26 04:19:19;;;;;;;;;;;;;;;;;;4966525;28;89324;-61
2023/11/26 04:21:45;;;;;;;;;;;;;;;;;;4966533;28;89685;-61
2023/11/26 04:24:11;;;;;;;;;;;;;;;;;;4969737;28;90323;-62
2023/11/26 04:26:37;;;;;;;;;;;;;;;;;;4969751;28;89682;-61
2023/11/26 04:29:02;;;;;;;;;;;;;;;;;;4986414;28;89952;-61
2023/11/26 04:31:27;;;;;;;;;;;;;;;;;;4986169;28;90391;-61
2023/11/26 04:33:53;;;;;;;;;;;;;;;;;;4975673;28;90468;-61
2023/11/26 04:36:18;;;;;;;;;;;;;;;;;;4966180;28;89888;-61
2023/11/26 04:38:44;;;;;;;;;;;;;;;;;;4966745;28;89450;-60
2023/11/26 04:41:09;;;;;;;;;;;;;;;;;;4966785;28;90899;-61
2023/11/26 04:43:35;;;;;;;;;;;;;;;;;;4968716;28;89462;-61
2023/11/26 04:46:00;;;;;;;;;;;;;;;;;;4966004;28;90286;-61
2023/11/26 04:48:25;;;;;;;;;;;;;;;;;;4966239;28;90362;-61
2023/11/26 04:50:50;;;;;;;;;;;;;;;;;;4966139;28;89482;-60
2023/11/26 04:53:16;;;;;;;;;;;;;;;;;;4966461;28;89714;-60
2023/11/26 04:55:42;;;;;;;;;;;;;;;;;;4966603;28;89483;-61
2023/11/26 04:58:07;;;;;;;;;;;;;;;;;;4966141;28;89336;-60
2023/11/26 05:00:33;;;;;;;;;;;;;;;;;;4966495;28;89532;-60
2023/11/26 05:02:58;;;;;;;;;;;;;;;;;;4969941;28;89867;-61
2023/11/26 05:05:23;;;;;;;;;;;;;;;;;;4972812;28;90079;-61
2023/11/26 05:07:48;;;;;;;;;;;;;;;;;;4969905;28;90693;-61
2023/11/26 05:10:15;;;;;;;;;;;;;;;;;;4969505;28;90319;-60
2023/11/26 05:12:40;;;;;;;;;;;;;;;;;;4969920;28;89545;-61
2023/11/26 05:15:06;;;;;;;;;;;;;;;;;;4968873;28;89145;-61
2023/11/26 05:17:32;;;;;;;;;;;;;;;;;;4969543;28;89229;-61
2023/11/26 05:19:57;;;;;;;;;;;;;;;;;;4970191;28;90545;-61
2023/11/26 05:22:22;;;;;;;;;;;;;;;;;;4970631;28;89149;-60
2023/11/26 05:24:47;;;;;;;;;;;;;;;;;;4969357;28;89423;-61
2023/11/26 05:27:13;;;;;;;;;;;;;;;;;;4972386;28;90170;-61
2023/11/26 05:29:38;;;;;;;;;;;;;;;;;;4969516;28;89561;-61
2023/11/26 05:32:03;;;;;;;;;;;;;;;;;;4969193;28;89738;-61
2023/11/26 05:34:29;;;;;;;;;;;;;;;;;;4969113;28;89547;-61
2023/11/26 05:36:54;;;;;;;;;;;;;;;;;;4969125;28;89127;-61
2023/11/26 05:39:19;;;;;;;;;;;;;;;;;;4969396;28;89740;-61
2023/11/26 05:41:45;;;;;;;;;;;;;;;;;;4969051;28;89505;-61
2023/11/26 05:44:10;;;;;;;;;;;;;;;;;;4969302;28;89455;-61
2023/11/26 05:46:35;;;;;;;;;;;;;;;;;;4968863;28;90373;-61
2023/11/26 05:49:00;;;;;;;;;;;;;;;;;;4972200;28;90567;-61
2023/11/26 05:51:26;;;;;;;;;;;;;;;;;;4969835;28;89086;-61
2023/11/26 05:53:51;;;;;;;;;;;;;;;;;;4969026;28;89192;-61
2023/11/26 05:56:16;;;;;;;;;;;;;;;;;;4968897;28;89231;-62
2023/11/26 05:58:41;;;;;;;;;;;;;;;;;;4968869;28;89479;-60
2023/11/26 06:01:07;;;;;;;;;;;;;;;;;;4968269;28;89073;-61
2023/11/26 06:03:32;;;;;;;;;;;;;;;;;;4968991;28;89614;-61
2023/11/26 06:05:57;;;;;;;;;;;;;;;;;;4968336;28;89577;-60
2023/11/26 06:08:23;;;;;;;;;;;;;;;;;;4968360;28;89345;-61
2023/11/26 06:10:48;;;;;;;;;;;;;;;;;;4971811;28;89043;-61
2023/11/26 06:13:13;;;;;;;;;;;;;;;;;;4967714;28;90435;-61
2023/11/26 06:15:39;;;;;;;;;;;;;;;;;;4968768;28;89390;-61
2023/11/26 06:18:04;;;;;;;;;;;;;;;;;;4968777;28;89470;-61
2023/11/26 06:20:30;;;;;;;;;;;;;;;;;;4968492;28;89246;-61
2023/11/26 06:22:55;;;;;;;;;;;;;;;;;;4968067;28;89208;-61
2023/11/26 06:25:21;;;;;;;;;;;;;;;;;;4968516;28;89535;-61
2023/11/26 06:27:46;;;;;;;;;;;;;;;;;;4970689;28;89526;-60
2023/11/26 06:30:11;;;;;;;;;;;;;;;;;;4968783;28;89282;-61
2023/11/26 06:32:37;;;;;;;;;;;;;;;;;;4971331;28;89486;-61
2023/11/26 06:35:02;;;;;;;;;;;;;;;;;;4968479;28;89531;-61
2023/11/26 06:37:27;;;;;;;;;;;;;;;;;;4968540;28;89665;-61
2023/11/26 06:39:53;;;;;;;;;;;;;;;;;;4968713;28;89191;-59
2023/11/26 06:42:18;;;;;;;;;;;;;;;;;;4961902;28;90346;-60
2023/11/26 06:44:44;;;;;;;;;;;;;;;;;;4960860;28;91927;-61
2023/11/26 06:47:09;;;;;;;;;;;;;;;;;;4965091;28;89445;-61
2023/11/26 06:49:34;;;;;;;;;;;;;;;;;;4956827;28;90236;-62
2023/11/26 06:52:00;;;;;;;;;;;;;;;;;;4960725;28;90420;-61
2023/11/26 06:54:25;;;;;;;;;;;;;;;;;;4954376;28;91550;-61
2023/11/26 06:56:51;;;;;;;;;;;;;;;;;;4953980;28;89108;-61
2023/11/26 06:59:16;;;;;;;;;;;;;;;;;;4972585;28;90357;-60
2023/11/26 07:01:41;;;;;;;;;;;;;;;;;;4963082;28;89600;-61
2023/11/26 07:04:06;;;;;;;;;;;;;;;;;;4957583;28;90794;-61
2023/11/26 07:06:32;;;;;;;;;;;;;;;;;;4961481;28;89284;-60
2023/11/26 07:08:57;;;;;;;;;;;;;;;;;;4957366;28;89996;-61
2023/11/26 07:11:23;;;;;;;;;;;;;;;;;;4952442;28;90683;-63
2023/11/26 07:13:48;;;;;;;;;;;;;;;;;;4960170;28;90489;-62
2023/11/26 07:16:13;;;;;;;;;;;;;;;;;;4959345;28;89889;-61
2023/11/26 07:18:39;;;;;;;;;;;;;;;;;;4958870;28;89600;-62
2023/11/26 07:21:05;;;;;;;;;;;;;;;;;;4964479;28;89980;-61
2023/11/26 07:23:31;;;;;;;;;;;;;;;;;;4955087;28;90462;-61
2023/11/26 07:25:56;;;;;;;;;;;;;;;;;;4959634;28;90314;-60
2023/11/26 07:28:22;;;;;;;;;;;;;;;;;;4946799;28;89129;-60
2023/11/26 07:30:47;;;;;;;;;;;;;;;;;;4972255;28;89009;-60
2023/11/26 07:33:12;;;;;;;;;;;;;;;;;;4957917;28;90552;-60
2023/11/26 07:35:38;;;;;;;;;;;;;;;;;;4966924;28;89164;-60
2023/11/26 07:38:04;;;;;;;;;;;;;;;;;;4966547;28;89185;-60
2023/11/26 07:40:32;;;;;;;;;;;;;;;;;;4958248;28;90222;-60
2023/11/26 07:42:59;;;;;;;;;;;;;;;;;;4965265;28;90656;-61
2023/11/26 07:45:24;;;;;;;;;;;;;;;;;;4963430;28;89465;-61
2023/11/26 07:47:49;;;;;;;;;;;;;;;;;;4964385;28;90759;-61
2023/11/26 07:50:15;;;;;;;;;;;;;;;;;;4966186;28;90110;-61
2023/11/26 07:52:40;;;;;;;;;;;;;;;;;;4960537;28;90252;-61
2023/11/26 07:55:06;;;;;;;;;;;;;;;;;;4955724;28;89931;-60
2023/11/26 07:57:31;;;;;;;;;;;;;;;;;;4958537;28;89680;-61
2023/11/26 07:59:57;;;;;;;;;;;;;;;;;;4952613;28;89601;-62
2023/11/26 08:02:23;;;;;;;;;;;;;;;;;;4967162;28;90877;-61
2023/11/26 08:04:49;;;;;;;;;;;;;;;;;;4960328;28;89546;-62
2023/11/26 08:07:15;;;;;;;;;;;;;;;;;;4957618;28;89625;-61
2023/11/26 08:09:41;;;;;;;;;;;;;;;;;;4959111;28;90966;-61
2023/11/26 08:12:10;;;;;;;;;;;;;;;;;;4959661;28;90473;-66
2023/11/26 08:14:35;;;;;;;;;;;;;;;;;;4955533;28;89183;-61
2023/11/26 08:17:04;;;;;;;;;;;;;;;;;;4955215;28;90167;-61
2023/11/26 08:19:29;;;;;;;;;;;;;;;;;;4958271;28;90349;-61
2023/11/26 08:21:55;;;;;;;;;;;;;;;;;;4962701;28;90149;-61
2023/11/26 08:24:20;;;;;;;;;;;;;;;;;;4956604;28;90172;-62
2023/11/26 08:26:46;;;;;;;;;;;;;;;;;;4960127;28;89614;-64
2023/11/26 08:29:13;;;;;;;;;;;;;;;;;;4956854;28;90005;-61
2023/11/26 08:31:39;;;;;;;;;;;;;;;;;;4961050;28;89177;-61
2023/11/26 08:34:05;;;;;;;;;;;;;;;;;;4958629;28;89197;-61
2023/11/26 08:36:33;;;;;;;;;;;;;;;;;;4958482;28;89548;-61
2023/11/26 08:38:59;;;;;;;;;;;;;;;;;;4958481;28;90243;-62
2023/11/26 08:41:25;;;;;;;;;;;;;;;;;;4961530;28;89500;-60
2023/11/26 08:43:50;;;;;;;;;;;;;;;;;;4962155;28;90307;-60
2023/11/26 08:46:16;;;;;;;;;;;;;;;;;;4966675;28;89952;-63
2023/11/26 08:48:42;;;;;;;;;;;;;;;;;;4965338;28;89556;-60
2023/11/26 08:51:08;;;;;;;;;;;;;;;;;;4956974;28;89243;-60
2023/11/26 08:53:33;;;;;;;;;;;;;;;;;;4959846;28;90146;-59
2023/11/26 08:55:58;;;;;;;;;;;;;;;;;;4951573;28;91344;-60
2023/11/26 08:58:24;;;;;;;;;;;;;;;;;;4964053;28;89172;-59
2023/11/26 09:00:49;;;;;;;;;;;;;;;;;;4963236;28;89517;-59
2023/11/26 09:03:15;;;;;;;;;;;;;;;;;;4966896;28;89086;-62
2023/11/26 09:05:41;;;;;;;;;;;;;;;;;;4966132;28;89005;-59
2023/11/26 09:08:06;;;;;;;;;;;;;;;;;;4966740;28;89489;-63
2023/11/26 09:10:31;;;;;;;;;;;;;;;;;;4968215;28;90710;-61
2023/11/26 09:12:56;;;;;;;;;;;;;;;;;;4964903;28;89405;-60
2023/11/26 09:15:25;;;;;;;;;;;;;;;;;;4963649;28;89740;-60
2023/11/26 09:17:51;;;;;;;;;;;;;;;;;;4966643;28;90660;-60
2023/11/26 09:20:16;;;;;;;;;;;;;;;;;;4961524;28;90385;-59
2023/11/26 09:22:41;;;;;;;;;;;;;;;;;;4966786;28;89609;-60
2023/11/26 09:25:08;;;;;;;;;;;;;;;;;;4964329;28;89598;-60
2023/11/26 09:27:33;;;;;;;;;;;;;;;;;;4964927;28;90725;-60
2023/11/26 09:29:58;;;;;;;;;;;;;;;;;;4966527;28;89597;-60
2023/11/26 09:32:24;;;;;;;;;;;;;;;;;;4965386;28;89613;-60
2023/11/26 09:34:52;;;;;;;;;;;;;;;;;;4967415;28;89543;-60
2023/11/26 09:37:18;;;;;;;;;;;;;;;;;;4964481;28;89864;-60
2023/11/26 09:39:43;;;;;;;;;;;;;;;;;;4963268;28;89422;-60
2023/11/26 09:42:10;;;;;;;;;;;;;;;;;;4965858;28;89428;-61
2023/11/26 09:44:36;;;;;;;;;;;;;;;;;;4967421;28;90461;-61
2023/11/26 09:47:01;;;;;;;;;;;;;;;;;;4964929;28;90573;-60
2023/11/26 09:49:27;;;;;;;;;;;;;;;;;;4963969;28;89654;-60
2023/11/26 09:51:54;;;;;;;;;;;;;;;;;;4967213;28;89015;-60
2023/11/26 09:54:20;;;;;;;;;;;;;;;;;;4965901;28;90863;-60
2023/11/26 09:56:46;;;;;;;;;;;;;;;;;;4963046;28;90372;-60
2023/11/26 09:59:28;;;;;;;;;;;;;;;;;;4966203;28;89114;-60
2023/11/26 10:01:54;;;;;;;;;;;;;;;;;;4964736;28;89479;-60
2023/11/26 10:04:21;;;;;;;;;;;;;;;;;;4960398;28;89042;-60
2023/11/26 10:06:50;;;;;;;;;;;;;;;;;;4963352;28;90046;-60
2023/11/26 10:09:17;;;;;;;;;;;;;;;;;;4966702;28;90203;-60
2023/11/26 10:11:42;;;;;;;;;;;;;;;;;;4965770;28;89081;-60
2023/11/26 10:14:27;;;;;;;;;;;;;;;;;;4965204;28;89548;-60
2023/11/26 10:16:53;;;;;;;;;;;;;;;;;;4963604;28;89410;-61
2023/11/26 10:19:25;;;;;;;;;;;;;;;;;;4965304;28;89827;-61
2023/11/26 10:21:51;;;;;;;;;;;;;;;;;;4963529;28;89983;-60
2023/11/26 10:24:18;;;;;;;;;;;;;;;;;;4964717;28;91175;-60
2023/11/26 10:26:43;;;;;;;;;;;;;;;;;;4965061;28;89152;-60
2023/11/26 10:29:12;;;;;;;;;;;;;;;;;;4968483;28;89497;-60
2023/11/26 10:31:38;;;;;;;;;;;;;;;;;;4961592;28;89000;-61
2023/11/26 10:34:07;;;;;;;;;;;;;;;;;;4963248;28;90658;-60
2023/11/26 10:36:33;;;;;;;;;;;;;;;;;;4962172;28;90172;-60
2023/11/26 10:39:00;;;;;;;;;;;;;;;;;;4964907;28;89507;-61
2023/11/26 10:41:26;;;;;;;;;;;;;;;;;;4965514;28;90947;-60
2023/11/26 10:43:54;;;;;;;;;;;;;;;;;;4965181;28;89929;-60
2023/11/26 10:46:21;;;;;;;;;;;;;;;;;;4959847;28;89281;-58
2023/11/26 10:48:48;;;;;;;;;;;;;;;;;;4965393;28;90595;-59
2023/11/26 10:51:20;;;;;;;;;;;;;;;;;;4969840;28;89351;-60
2023/11/26 10:53:45;;;;;;;;;;;;;;;;;;4964485;28;90083;-61
2023/11/26 10:56:12;;;;;;;;;;;;;;;;;;4964808;28;89931;-60
2023/11/26 10:58:39;;;;;;;;;;;;;;;;;;4963290;28;89171;-60
2023/11/26 11:01:05;;;;;;;;;;;;;;;;;;4964285;28;90603;-59
2023/11/26 11:03:31;;;;;;;;;;;;;;;;;;4962551;28;90498;-60
2023/11/26 11:05:58;;;;;;;;;;;;;;;;;;4963842;28;89146;-60
2023/11/26 11:08:24;;;;;;;;;;;;;;;;;;4964838;28;89657;-59
2023/11/26 11:10:49;;;;;;;;;;;;;;;;;;4964219;28;89362;-61
2023/11/26 11:13:15;;;;;;;;;;;;;;;;;;4966402;28;90304;-73
2023/11/26 11:15:41;;;;;;;;;;;;;;;;;;4963142;28;89187;-68
2023/11/26 11:18:27;;;;;;;;;;;;;;;;;;4960225;28;89061;-73
2023/11/26 11:21:05;;;;;;;;;;;;;;;;;;4957174;28;89492;-61
2023/11/26 11:23:35;;;;;;;;;;;;;;;;;;4962153;28;90193;-58
2023/11/26 11:26:00;;;;;;;;;;;;;;;;;;4963311;28;90398;-60
2023/11/26 11:28:38;;;;;;;;;;;;;;;;;;4960482;28;90672;-59
2023/11/26 11:31:04;;;;;;;;;;;;;;;;;;4964696;28;89085;-59
2023/11/26 11:33:29;;;;;;;;;;;;;;;;;;4967182;28;89497;-59
2023/11/26 11:35:54;;;;;;;;;;;;;;;;;;4965467;28;89387;-60
2023/11/26 11:38:20;;;;;;;;;;;;;;;;;;4961921;28;89083;-60
2023/11/26 11:41:14;;;;;;;;;;;;;;;;;;4963214;28;90438;-59
2023/11/26 11:43:42;;;;;;;;;;;;;;;;;;4960948;28;89618;-62
2023/11/26 11:46:28;;;;;;;;;;;;;;;;;;4964722;28;89174;-64
2023/11/26 11:48:57;;;;;;;;;;;;;;;;;;4961470;28;89641;-59
2023/11/26 11:51:29;;;;;;;;;;;;;;;;;;4963295;28;89342;-60
2023/11/26 11:53:54;;;;;;;;;;;;;;;;;;4961109;28;89514;-59
2023/11/26 11:56:19;;;;;;;;;;;;;;;;;;4966626;28;89718;-62
2023/11/26 11:58:45;;;;;;;;;;;;;;;;;;4965363;28;89042;-65
2023/11/26 12:01:12;;;;;;;;;;;;;;;;;;4961003;28;90254;-61
2023/11/26 12:03:38;;;;;;;;;;;;;;;;;;4962955;28;89737;-61
2023/11/26 12:06:12;;;;;;;;;;;;;;;;;;4962686;28;89969;-66
2023/11/26 12:08:38;;;;;;;;;;;;;;;;;;4962331;28;89539;-76
2023/11/26 12:11:08;;;;;;;;;;;;;;;;;;4959006;28;89950;-61
2023/11/26 12:13:42;;;;;;;;;;;;;;;;;;4958016;28;91478;-66
2023/11/26 12:16:08;;;;;;;;;;;;;;;;;;4960442;28;91038;-60
2023/11/26 12:18:33;;;;;;;;;;;;;;;;;;4964121;28;89438;-61
2023/11/26 12:20:58;;;;;;;;;;;;;;;;;;4963765;28;92758;-59
2023/11/26 12:23:30;;;;;;;;;;;;;;;;;;4963170;28;89102;-61
2023/11/26 12:25:57;;;;;;;;;;;;;;;;;;4962472;28;90434;-59
2023/11/26 12:28:23;;;;;;;;;;;;;;;;;;4960891;28;90274;-62
2023/11/26 12:30:55;;;;;;;;;;;;;;;;;;4960300;28;90299;-59
2023/11/26 12:33:20;;;;;;;;;;;;;;;;;;4962805;28;90476;-61
2023/11/26 12:35:46;;;;;;;;;;;;;;;;;;4961606;28;89503;-62
2023/11/26 12:38:11;;;;;;;;;;;;;;;;;;4964978;28;89837;-61
2023/11/26 12:40:37;;;;;;;;;;;;;;;;;;4962729;28;89079;-63
2023/11/26 12:43:02;;;;;;;;;;;;;;;;;;4960813;28;89842;-66
2023/11/26 12:45:27;;;;;;;;;;;;;;;;;;4961123;28;90229;-71
2023/11/26 12:47:54;;;;;;;;;;;;;;;;;;4960090;28;89994;-60
2023/11/26 12:50:20;;;;;;;;;;;;;;;;;;4962170;28;89428;-61
2023/11/26 12:52:46;;;;;;;;;;;;;;;;;;4965362;28;89049;-68
2023/11/26 12:55:11;;;;;;;;;;;;;;;;;;4961779;28;90596;-61
2023/11/26 12:57:39;;;;;;;;;;;;;;;;;;4964806;28;90181;-60
2023/11/26 13:00:10;;;;;;;;;;;;;;;;;;4960095;28;90195;-59
2023/11/26 13:02:35;;;;;;;;;;;;;;;;;;4960790;28;89431;-61
2023/11/26 13:05:04;;;;;;;;;;;;;;;;;;4960644;28;90176;-62
2023/11/26 13:07:38;;;;;;;;;;;;;;;;;;4960677;28;90691;-70
2023/11/26 13:10:08;;;;;;;;;;;;;;;;;;4955881;28;90516;-62
2023/11/26 13:12:41;;;;;;;;;;;;;;;;;;4961178;28;89538;-67
2023/11/26 13:15:06;;;;;;;;;;;;;;;;;;4963311;28;89550;-72
2023/11/26 13:17:31;;;;;;;;;;;;;;;;;;4959463;28;89576;-63
2023/11/26 13:19:56;;;;;;;;;;;;;;;;;;4960608;28;89369;-66
2023/11/26 13:22:22;;;;;;;;;;;;;;;;;;4963862;28;89557;-63
2023/11/26 13:24:47;;;;;;;;;;;;;;;;;;4965754;28;91067;-62
2023/11/26 13:27:12;;;;;;;;;;;;;;;;;;4964273;28;89547;-72
2023/11/26 13:29:37;;;;;;;;;;;;;;;;;;4961849;28;89613;-77
2023/11/26 13:32:02;;;;;;;;;;;;;;;;;;4960976;28;90600;-66
2023/11/26 13:34:28;;;;;;;;;;;;;;;;;;4964601;28;91583;-70
2023/11/26 13:36:53;;;;;;;;;;;;;;;;;;4966168;28;89777;-64
2023/11/26 13:39:20;;;;;;;;;;;;;;;;;;4967871;28;89414;-64
2023/11/26 13:41:46;;;;;;;;;;;;;;;;;;4961545;28;90820;-64
2023/11/26 13:44:11;;;;;;;;;;;;;;;;;;4965640;28;89244;-61
2023/11/26 13:46:36;;;;;;;;;;;;;;;;;;4962301;28;89993;-63
2023/11/26 13:49:01;;;;;;;;;;;;;;;;;;4966508;28;89355;-64
2023/11/26 13:51:26;;;;;;;;;;;;;;;;;;4964855;28;89842;-64
2023/11/26 13:53:52;;;;;;;;;;;;;;;;;;4963896;28;89517;-64
2023/11/26 13:56:17;;;;;;;;;;;;;;;;;;4959774;28;90137;-64
2023/11/26 13:58:42;;;;;;;;;;;;;;;;;;4960508;28;90082;-64
2023/11/26 14:01:08;;;;;;;;;;;;;;;;;;4957870;28;89494;-64
2023/11/26 14:03:34;;;;;;;;;;;;;;;;;;4959573;28;90594;-64
2023/11/26 14:05:59;;;;;;;;;;;;;;;;;;4964883;28;89369;-64
2023/11/26 14:08:25;;;;;;;;;;;;;;;;;;4964397;28;90411;-64
2023/11/26 14:10:50;;;;;;;;;;;;;;;;;;4958244;28;89359;-63
2023/11/26 14:13:17;;;;;;;;;;;;;;;;;;4963266;28;89999;-64
2023/11/26 14:15:42;;;;;;;;;;;;;;;;;;4963632;28;90307;-64
2023/11/26 14:18:08;;;;;;;;;;;;;;;;;;4961613;28;90579;-67
2023/11/26 14:20:33;;;;;;;;;;;;;;;;;;4963751;28;89522;-63
2023/11/26 14:22:58;;;;;;;;;;;;;;;;;;4962646;28;89543;-63
2023/11/26 14:25:23;;;;;;;;;;;;;;;;;;4964467;28;89507;-65
2023/11/26 14:27:49;;;;;;;;;;;;;;;;;;4963679;28;89432;-66
2023/11/26 14:30:15;;;;;;;;;;;;;;;;;;4962112;28;90135;-64
2023/11/26 14:32:41;;;;;;;;;;;;;;;;;;4963244;28;89796;-72
2023/11/26 14:35:07;;;;;;;;;;;;;;;;;;4961672;28;90219;-64
2023/11/26 14:37:32;;;;;;;;;;;;;;;;;;4964247;28;90005;-64
2023/11/26 14:39:58;;;;;;;;;;;;;;;;;;4960980;28;89625;-63
2023/11/26 14:42:25;;;;;;;;;;;;;;;;;;4964892;28;90375;-64
2023/11/26 14:44:50;;;;;;;;;;;;;;;;;;4962401;28;89589;-64
2023/11/26 14:47:18;;;;;;;;;;;;;;;;;;4963873;28;90002;-63
2023/11/26 14:49:43;;;;;;;;;;;;;;;;;;4968550;28;89513;-64
2023/11/26 14:52:08;;;;;;;;;;;;;;;;;;4963852;28;89486;-63
2023/11/26 14:54:37;;;;;;;;;;;;;;;;;;4962808;28;89488;-63
2023/11/26 14:57:02;;;;;;;;;;;;;;;;;;4965041;28;90567;-62
2023/11/26 14:59:28;;;;;;;;;;;;;;;;;;4963799;28;89566;-62
2023/11/26 15:01:53;;;;;;;;;;;;;;;;;;4961857;28;90246;-65
2023/11/26 15:04:18;;;;;;;;;;;;;;;;;;4964348;28;89117;-62
2023/11/26 15:06:44;;;;;;;;;;;;;;;;;;4963450;28;89603;-63
2023/11/26 15:09:09;;;;;;;;;;;;;;;;;;4963983;28;91703;-61
2023/11/26 15:11:35;;;;;;;;;;;;;;;;;;4962599;28;91899;-64
2023/11/26 15:14:00;;;;;;;;;;;;;;;;;;4964249;28;90196;-62
2023/11/26 15:16:26;;;;;;;;;;;;;;;;;;4963532;28;89311;-61
2023/11/26 15:18:51;;;;;;;;;;;;;;;;;;4962258;28;89595;-60
2023/11/26 15:21:17;;;;;;;;;;;;;;;;;;4964571;28;90210;-60
2023/11/26 15:23:43;;;;;;;;;;;;;;;;;;4961331;28;89747;-62
2023/11/26 15:26:09;;;;;;;;;;;;;;;;;;4962990;28;89812;-60
2023/11/26 15:28:34;;;;;;;;;;;;;;;;;;4964319;28;89700;-61
2023/11/26 15:30:59;;;;;;;;;;;;;;;;;;4967680;28;89902;-59
2023/11/26 15:33:25;;;;;;;;;;;;;;;;;;4964784;28;90010;-60
2023/11/26 15:35:51;;;;;;;;;;;;;;;;;;4962919;28;89328;-59
2023/11/26 15:38:17;;;;;;;;;;;;;;;;;;4961643;28;89551;-60
2023/11/26 15:40:42;;;;;;;;;;;;;;;;;;4961610;28;90009;-60
2023/11/26 15:43:08;;;;;;;;;;;;;;;;;;4960997;28;89359;-62
2023/11/26 15:45:33;;;;;;;;;;;;;;;;;;4961859;28;89862;-61
2023/11/26 15:47:59;;;;;;;;;;;;;;;;;;4962150;28;90199;-64
2023/11/26 15:50:25;;;;;;;;;;;;;;;;;;4965656;28;89824;-64
2023/11/26 15:52:50;;;;;;;;;;;;;;;;;;4965662;28;91023;-63
2023/11/26 15:55:16;;;;;;;;;;;;;;;;;;4965685;28;89102;-63
2023/11/26 15:57:41;;;;;;;;;;;;;;;;;;4959109;28;90647;-63
2023/11/26 16:00:07;;;;;;;;;;;;;;;;;;4964415;28;89483;-64
2023/11/26 16:02:32;;;;;;;;;;;;;;;;;;4959346;28;89680;-60
2023/11/26 16:04:59;;;;;;;;;;;;;;;;;;4965369;28;89632;-60
2023/11/26 16:07:25;;;;;;;;;;;;;;;;;;4963190;28;90477;-60
2023/11/26 16:09:50;;;;;;;;;;;;;;;;;;4963876;28;90143;-59
2023/11/26 16:12:15;;;;;;;;;;;;;;;;;;4958884;28;89982;-59
2023/11/26 16:14:41;;;;;;;;;;;;;;;;;;4965130;28;90224;-60
2023/11/26 16:17:06;;;;;;;;;;;;;;;;;;4965430;28;89709;-60
2023/11/26 16:19:33;;;;;;;;;;;;;;;;;;4963618;28;89577;-60
2023/11/26 16:21:58;;;;;;;;;;;;;;;;;;4960906;28;89067;-61
2023/11/26 16:24:23;;;;;;;;;;;;;;;;;;4962706;28;89525;-59
2023/11/26 16:26:50;;;;;;;;;;;;;;;;;;4961144;28;89182;-61
2023/11/26 16:29:15;;;;;;;;;;;;;;;;;;4963272;28;89208;-59
2023/11/26 16:31:41;;;;;;;;;;;;;;;;;;4963113;28;89066;-60
2023/11/26 16:34:06;;;;;;;;;;;;;;;;;;4965001;28;89098;-62
2023/11/26 16:36:32;;;;;;;;;;;;;;;;;;4964244;28;89428;-60
2023/11/26 16:38:57;;;;;;;;;;;;;;;;;;4963169;28;89805;-60
2023/11/26 16:41:22;;;;;;;;;;;;;;;;;;4963168;28;90108;-63